»·PEaware :: SIL691 KHHR-KSBA

SIL691 :: KHHR-KSBA

FLIGHT INFORMATION

Flight Status: Arrived
Operator: Unknown
More flights by this operator :: More flights under this callsign
Pilot: Thomas N. (7419)
Aircraft: SAAB 340
(SF34)
More flights by this aircraft type
Origin: KHHR Northrop/Hawthorne Mun
United States
Destination: KSBA Santa Barbara Mun
United States
More flights between these airports :: More routes between these airports
Route: +SMO125R SMO V107 SADDE V299 VTU VTU282 KWANG
File this flight plan on PilotEdge
Remarks:
Altitude:
(Current/Filed)
6,000ft
Speed:
(Current/Filed)
250kts
Departed: 20-Feb-16 03:17 PM
Arrived: 20-Feb-16 03:45 PM
Distance/Time
Traveled:
81nm/0:28
Distance/Time
To Go:
Arrived

Flight Plot

Page will automatically refresh every two minutes.


Map Options




Map Legend


Flown Route
Filed Route
Departure Airport
Arrival Airport
Navaid (VOR, NDB)
Fix

Horizontal Profiles

Position Reports

Time Latitude Longitude Heading Altitude Ground
Speed
20-Feb-16 14:50 33.922031 -118.328986 355 70ft 0kts
20-Feb-16 14:51 33.922031 -118.328986 355 70ft 0kts
20-Feb-16 14:52 33.922031 -118.328986 355 70ft 0kts
20-Feb-16 14:53 33.922031 -118.328986 355 70ft 0kts
20-Feb-16 14:54 33.922031 -118.328986 355 70ft 0kts
20-Feb-16 14:55 33.922031 -118.328986 355 70ft 0kts
20-Feb-16 14:56 33.922031 -118.328986 355 70ft 0kts
20-Feb-16 14:57 33.922031 -118.328986 355 70ft 0kts
20-Feb-16 14:58 33.922031 -118.328986 355 70ft 0kts
20-Feb-16 14:59 33.922031 -118.328986 355 70ft 0kts
20-Feb-16 15:00 33.922031 -118.328986 355 70ft 0kts
20-Feb-16 15:01 33.922031 -118.328986 355 70ft 0kts
20-Feb-16 15:02 33.922031 -118.328986 355 70ft 0kts
20-Feb-16 15:03 33.922031 -118.328986 355 70ft 0kts
20-Feb-16 15:04 33.922697 -118.328781 86 70ft 9kts
20-Feb-16 15:05 33.922737 -118.328267 85 70ft 5kts
20-Feb-16 15:06 33.922765 -118.327694 87 70ft 0kts
20-Feb-16 15:07 33.922769 -118.327590 87 70ft 0kts
20-Feb-16 15:08 33.922843 -118.327214 34 70ft 0kts
20-Feb-16 15:09 33.922843 -118.327214 34 70ft 0kts
20-Feb-16 15:10 33.922845 -118.327213 34 70ft 0kts
20-Feb-16 15:11 33.923176 -118.328671 266 70ft 41kts
20-Feb-16 15:12 33.922991 -118.364626 271 936ft 143kts
20-Feb-16 15:13 33.925624 -118.422663 273 2100ft 198kts
20-Feb-16 15:14 33.906864 -118.481531 225 3021ft 197kts
20-Feb-16 15:15 33.867136 -118.526665 224 3299ft 187kts
20-Feb-16 15:16 33.833967 -118.568242 252 4359ft 161kts
20-Feb-16 15:17 33.827504 -118.623992 264 5502ft 183kts
20-Feb-16 15:18 33.821654 -118.689549 264 6045ft 216kts
20-Feb-16 15:19 33.815163 -118.764691 264 6041ft 231kts
20-Feb-16 15:20 33.808632 -118.842239 264 6040ft 233kts
20-Feb-16 15:21 33.801711 -118.920061 264 6043ft 233kts
20-Feb-16 15:22 33.801476 -118.996617 300 6056ft 232kts
20-Feb-16 15:23 33.846827 -119.053063 318 6050ft 235kts
20-Feb-16 15:24 33.896365 -119.102650 318 6049ft 235kts
20-Feb-16 15:25 33.946724 -119.152218 318 6050ft 235kts
20-Feb-16 15:26 33.997201 -119.202298 318 6047ft 236kts
20-Feb-16 15:27 34.047843 -119.252450 318 6044ft 237kts
20-Feb-16 15:28 34.098667 -119.303117 317 6040ft 239kts
20-Feb-16 15:29 34.149860 -119.354287 317 5956ft 243kts
20-Feb-16 15:30 34.203355 -119.407860 318 5248ft 253kts
20-Feb-16 15:31 34.257482 -119.462145 318 4755ft 252kts
20-Feb-16 15:32 34.307612 -119.512529 316 4111ft 214kts
20-Feb-16 15:33 34.332039 -119.572352 291 3759ft 197kts
20-Feb-16 15:34 34.354731 -119.631724 295 2322ft 194kts
20-Feb-16 15:35 34.376658 -119.688407 295 1327ft 165kts
20-Feb-16 15:36 34.398451 -119.736375 296 1233ft 170kts
20-Feb-16 15:37 34.422926 -119.781464 305 1058ft 128kts
20-Feb-16 15:38 34.427842 -119.826038 269 157ft 142kts
20-Feb-16 15:39 34.426659 -119.846378 174 18ft 0kts
20-Feb-16 15:40 34.426632 -119.846374 171 18ft 2kts
20-Feb-16 15:41 34.426302 -119.845214 88 18ft 12kts
20-Feb-16 15:42 34.426412 -119.839912 88 18ft 19kts

Navigation Log

Ident Type
Flight plan parsing failed, navigation log unavailable